sensor_id;sensor_type;location;lat;lon;timestamp;P1;durP1;ratioP1;P2;durP2;ratioP2
77948;SDS011;67146;51.236;-0.336;2023-04-25T00:00:39;21.17;;;3.95;;
77948;SDS011;67146;51.236;-0.336;2023-04-25T00:03:04;14.53;;;3.37;;
77948;SDS011;67146;51.236;-0.336;2023-04-25T00:05:31;17.63;;;3.67;;
77948;SDS011;67146;51.236;-0.336;2023-04-25T00:07:56;31.23;;;5.20;;
77948;SDS011;67146;51.236;-0.336;2023-04-25T00:10:22;28.10;;;4.90;;
77948;SDS011;67146;51.236;-0.336;2023-04-25T00:12:48;24.25;;;6.10;;
77948;SDS011;67146;51.236;-0.336;2023-04-25T00:15:13;26.50;;;5.03;;
77948;SDS011;67146;51.236;-0.336;2023-04-25T00:17:39;29.88;;;5.10;;
77948;SDS011;67146;51.236;-0.336;2023-04-25T00:20:04;24.63;;;5.63;;
77948;SDS011;67146;51.236;-0.336;2023-04-25T00:22:31;23.70;;;5.18;;
77948;SDS011;67146;51.236;-0.336;2023-04-25T00:24:59;18.77;;;3.88;;
77948;SDS011;67146;51.236;-0.336;2023-04-25T00:27:25;19.98;;;3.30;;
77948;SDS011;67146;51.236;-0.336;2023-04-25T00:29:51;23.83;;;3.47;;
77948;SDS011;67146;51.236;-0.336;2023-04-25T00:32:16;21.80;;;3.40;;
77948;SDS011;67146;51.236;-0.336;2023-04-25T00:34:42;16.37;;;3.60;;
77948;SDS011;67146;51.236;-0.336;2023-04-25T00:37:07;25.37;;;3.87;;
77948;SDS011;67146;51.236;-0.336;2023-04-25T00:39:32;15.40;;;2.75;;
77948;SDS011;67146;51.236;-0.336;2023-04-25T00:41:58;20.17;;;3.13;;
77948;SDS011;67146;51.236;-0.336;2023-04-25T00:44:23;12.07;;;2.60;;
77948;SDS011;67146;51.236;-0.336;2023-04-25T00:46:49;19.50;;;2.78;;
77948;SDS011;67146;51.236;-0.336;2023-04-25T00:49:15;17.73;;;2.88;;
77948;SDS011;67146;51.236;-0.336;2023-04-25T00:51:42;15.85;;;3.00;;
77948;SDS011;67146;51.236;-0.336;2023-04-25T00:54:10;19.48;;;4.18;;
77948;SDS011;67146;51.236;-0.336;2023-04-25T00:56:36;20.33;;;3.03;;
77948;SDS011;67146;51.236;-0.336;2023-04-25T00:59:02;20.23;;;2.95;;
77948;SDS011;67146;51.236;-0.336;2023-04-25T01:01:27;11.70;;;1.77;;
77948;SDS011;67146;51.236;-0.336;2023-04-25T01:03:53;16.55;;;2.67;;
77948;SDS011;67146;51.236;-0.336;2023-04-25T01:06:19;16.00;;;2.20;;
77948;SDS011;67146;51.236;-0.336;2023-04-25T01:08:44;15.02;;;2.35;;
77948;SDS011;67146;51.236;-0.336;2023-04-25T01:11:10;14.85;;;2.40;;
77948;SDS011;67146;51.236;-0.336;2023-04-25T01:13:35;17.75;;;2.28;;
77948;SDS011;67146;51.236;-0.336;2023-04-25T01:16:01;10.18;;;1.88;;
77948;SDS011;67146;51.236;-0.336;2023-04-25T01:18:27;15.20;;;2.05;;
77948;SDS011;67146;51.236;-0.336;2023-04-25T01:20:52;12.70;;;1.48;;
77948;SDS011;67146;51.236;-0.336;2023-04-25T01:23:18;20.30;;;1.88;;
77948;SDS011;67146;51.236;-0.336;2023-04-25T01:25:47;15.05;;;2.22;;
77948;SDS011;67146;51.236;-0.336;2023-04-25T01:28:13;15.10;;;1.80;;
77948;SDS011;67146;51.236;-0.336;2023-04-25T01:30:39;14.48;;;2.22;;
77948;SDS011;67146;51.236;-0.336;2023-04-25T01:33:05;17.35;;;1.85;;
77948;SDS011;67146;51.236;-0.336;2023-04-25T01:35:31;16.85;;;2.63;;
77948;SDS011;67146;51.236;-0.336;2023-04-25T01:37:57;16.88;;;1.85;;
77948;SDS011;67146;51.236;-0.336;2023-04-25T01:40:22;11.60;;;1.83;;
77948;SDS011;67146;51.236;-0.336;2023-04-25T01:42:49;18.63;;;2.40;;
77948;SDS011;67146;51.236;-0.336;2023-04-25T01:45:14;15.02;;;1.80;;
77948;SDS011;67146;51.236;-0.336;2023-04-25T01:47:40;11.45;;;1.67;;
77948;SDS011;67146;51.236;-0.336;2023-04-25T01:50:07;17.92;;;2.00;;
77948;SDS011;67146;51.236;-0.336;2023-04-25T01:52:33;19.90;;;2.88;;
77948;SDS011;67146;51.236;-0.336;2023-04-25T01:54:59;18.20;;;1.57;;
77948;SDS011;67146;51.236;-0.336;2023-04-25T01:57:26;13.93;;;1.85;;
77948;SDS011;67146;51.236;-0.336;2023-04-25T01:59:53;11.73;;;1.20;;
77948;SDS011;67146;51.236;-0.336;2023-04-25T02:02:58;11.07;;;1.77;;
77948;SDS011;67146;51.236;-0.336;2023-04-25T02:05:24;24.23;;;2.00;;
77948;SDS011;67146;51.236;-0.336;2023-04-25T02:07:49;13.75;;;3.55;;
77948;SDS011;67146;51.236;-0.336;2023-04-25T02:10:15;10.63;;;1.45;;
77948;SDS011;67146;51.236;-0.336;2023-04-25T02:12:40;17.40;;;2.05;;
77948;SDS011;67146;51.236;-0.336;2023-04-25T02:15:06;15.48;;;1.80;;
77948;SDS011;67146;51.236;-0.336;2023-04-25T02:17:32;16.58;;;2.28;;
77948;SDS011;67146;51.236;-0.336;2023-04-25T02:19:57;15.75;;;1.80;;
77948;SDS011;67146;51.236;-0.336;2023-04-25T02:22:22;12.50;;;2.05;;
77948;SDS011;67146;51.236;-0.336;2023-04-25T02:24:48;17.63;;;2.30;;
77948;SDS011;67146;51.236;-0.336;2023-04-25T02:27:13;15.60;;;2.28;;
77948;SDS011;67146;51.236;-0.336;2023-04-25T02:29:39;12.97;;;1.70;;
77948;SDS011;67146;51.236;-0.336;2023-04-25T02:32:04;10.27;;;1.53;;
77948;SDS011;67146;51.236;-0.336;2023-04-25T02:34:29;12.25;;;1.52;;
77948;SDS011;67146;51.236;-0.336;2023-04-25T02:36:55;13.95;;;2.20;;
77948;SDS011;67146;51.236;-0.336;2023-04-25T02:39:20;15.17;;;2.57;;
77948;SDS011;67146;51.236;-0.336;2023-04-25T02:41:47;13.32;;;2.72;;
77948;SDS011;67146;51.236;-0.336;2023-04-25T02:44:12;14.70;;;3.45;;
77948;SDS011;67146;51.236;-0.336;2023-04-25T02:46:37;18.67;;;2.00;;
77948;SDS011;67146;51.236;-0.336;2023-04-25T02:49:03;11.18;;;1.65;;
77948;SDS011;67146;51.236;-0.336;2023-04-25T02:51:28;17.60;;;2.33;;
77948;SDS011;67146;51.236;-0.336;2023-04-25T02:53:53;17.50;;;2.37;;
77948;SDS011;67146;51.236;-0.336;2023-04-25T02:56:19;17.70;;;2.43;;
77948;SDS011;67146;51.236;-0.336;2023-04-25T02:58:44;16.48;;;2.67;;
77948;SDS011;67146;51.236;-0.336;2023-04-25T03:01:10;21.17;;;2.80;;
77948;SDS011;67146;51.236;-0.336;2023-04-25T03:03:35;16.02;;;2.30;;
77948;SDS011;67146;51.236;-0.336;2023-04-25T03:06:00;13.95;;;2.28;;
77948;SDS011;67146;51.236;-0.336;2023-04-25T03:08:26;9.70;;;1.80;;
77948;SDS011;67146;51.236;-0.336;2023-04-25T03:10:54;15.75;;;2.80;;
77948;SDS011;67146;51.236;-0.336;2023-04-25T03:13:20;10.48;;;1.95;;
77948;SDS011;67146;51.236;-0.336;2023-04-25T03:15:45;13.55;;;2.40;;
77948;SDS011;67146;51.236;-0.336;2023-04-25T03:18:11;13.90;;;2.63;;
77948;SDS011;67146;51.236;-0.336;2023-04-25T03:20:36;17.37;;;2.40;;
77948;SDS011;67146;51.236;-0.336;2023-04-25T03:23:01;16.08;;;2.38;;
77948;SDS011;67146;51.236;-0.336;2023-04-25T03:25:27;17.42;;;2.28;;
77948;SDS011;67146;51.236;-0.336;2023-04-25T03:27:52;19.47;;;2.77;;
77948;SDS011;67146;51.236;-0.336;2023-04-25T03:30:18;15.38;;;1.73;;
77948;SDS011;67146;51.236;-0.336;2023-04-25T03:32:43;16.30;;;2.25;;
77948;SDS011;67146;51.236;-0.336;2023-04-25T03:35:08;19.27;;;2.00;;
77948;SDS011;67146;51.236;-0.336;2023-04-25T03:37:33;13.23;;;2.00;;
77948;SDS011;67146;51.236;-0.336;2023-04-25T03:39:59;12.03;;;2.23;;
77948;SDS011;67146;51.236;-0.336;2023-04-25T03:42:24;14.57;;;2.17;;
77948;SDS011;67146;51.236;-0.336;2023-04-25T03:44:50;18.80;;;2.53;;
77948;SDS011;67146;51.236;-0.336;2023-04-25T03:47:16;17.77;;;2.63;;
77948;SDS011;67146;51.236;-0.336;2023-04-25T03:49:42;15.25;;;1.52;;
77948;SDS011;67146;51.236;-0.336;2023-04-25T03:52:07;17.38;;;2.03;;
77948;SDS011;67146;51.236;-0.336;2023-04-25T03:54:33;15.02;;;2.05;;
77948;SDS011;67146;51.236;-0.336;2023-04-25T03:56:58;13.40;;;1.93;;
77948;SDS011;67146;51.236;-0.336;2023-04-25T03:59:23;18.38;;;2.13;;
77948;SDS011;67146;51.236;-0.336;2023-04-25T04:01:49;14.85;;;2.50;;
77948;SDS011;67146;51.236;-0.336;2023-04-25T04:04:15;13.82;;;1.88;;
77948;SDS011;67146;51.236;-0.336;2023-04-25T04:06:40;16.17;;;2.22;;
77948;SDS011;67146;51.236;-0.336;2023-04-25T04:09:07;14.85;;;2.58;;
77948;SDS011;67146;51.236;-0.336;2023-04-25T04:11:35;13.57;;;3.00;;
77948;SDS011;67146;51.236;-0.336;2023-04-25T04:14:03;16.90;;;2.25;;
77948;SDS011;67146;51.236;-0.336;2023-04-25T04:16:29;13.13;;;1.67;;
77948;SDS011;67146;51.236;-0.336;2023-04-25T04:18:54;17.07;;;2.37;;
77948;SDS011;67146;51.236;-0.336;2023-04-25T04:21:20;12.00;;;1.50;;
77948;SDS011;67146;51.236;-0.336;2023-04-25T04:23:45;12.87;;;1.80;;
77948;SDS011;67146;51.236;-0.336;2023-04-25T04:26:11;24.30;;;2.83;;
77948;SDS011;67146;51.236;-0.336;2023-04-25T04:28:37;16.27;;;2.15;;
77948;SDS011;67146;51.236;-0.336;2023-04-25T04:31:03;18.13;;;1.95;;
77948;SDS011;67146;51.236;-0.336;2023-04-25T04:33:28;12.45;;;2.33;;
77948;SDS011;67146;51.236;-0.336;2023-04-25T04:35:55;14.60;;;1.90;;
77948;SDS011;67146;51.236;-0.336;2023-04-25T04:38:21;13.90;;;2.15;;
77948;SDS011;67146;51.236;-0.336;2023-04-25T04:40:46;12.75;;;1.95;;
77948;SDS011;67146;51.236;-0.336;2023-04-25T04:43:12;15.32;;;1.52;;
77948;SDS011;67146;51.236;-0.336;2023-04-25T04:45:38;14.20;;;2.15;;
77948;SDS011;67146;51.236;-0.336;2023-04-25T04:48:05;17.30;;;2.05;;
77948;SDS011;67146;51.236;-0.336;2023-04-25T04:50:31;14.13;;;1.98;;
77948;SDS011;67146;51.236;-0.336;2023-04-25T04:52:57;14.20;;;2.20;;
77948;SDS011;67146;51.236;-0.336;2023-04-25T04:55:23;15.57;;;2.08;;
77948;SDS011;67146;51.236;-0.336;2023-04-25T04:57:48;9.23;;;1.77;;
77948;SDS011;67146;51.236;-0.336;2023-04-25T05:00:13;14.43;;;2.38;;
77948;SDS011;67146;51.236;-0.336;2023-04-25T05:02:40;11.30;;;1.80;;
77948;SDS011;67146;51.236;-0.336;2023-04-25T05:05:06;13.15;;;2.75;;
77948;SDS011;67146;51.236;-0.336;2023-04-25T05:07:32;16.13;;;2.67;;
77948;SDS011;67146;51.236;-0.336;2023-04-25T05:09:57;11.65;;;2.00;;
77948;SDS011;67146;51.236;-0.336;2023-04-25T05:12:23;11.33;;;1.43;;
77948;SDS011;67146;51.236;-0.336;2023-04-25T05:14:48;20.77;;;2.00;;
77948;SDS011;67146;51.236;-0.336;2023-04-25T05:17:13;17.43;;;2.87;;
77948;SDS011;67146;51.236;-0.336;2023-04-25T05:19:39;16.10;;;2.63;;
77948;SDS011;67146;51.236;-0.336;2023-04-25T05:22:04;15.27;;;2.22;;
77948;SDS011;67146;51.236;-0.336;2023-04-25T05:24:30;14.45;;;2.13;;
77948;SDS011;67146;51.236;-0.336;2023-04-25T05:26:55;18.20;;;3.10;;
77948;SDS011;67146;51.236;-0.336;2023-04-25T05:29:21;17.60;;;2.88;;
77948;SDS011;67146;51.236;-0.336;2023-04-25T05:31:46;9.80;;;1.80;;
77948;SDS011;67146;51.236;-0.336;2023-04-25T05:34:13;8.95;;;1.88;;
77948;SDS011;67146;51.236;-0.336;2023-04-25T05:36:38;16.38;;;2.85;;
77948;SDS011;67146;51.236;-0.336;2023-04-25T05:39:03;12.07;;;1.60;;
77948;SDS011;67146;51.236;-0.336;2023-04-25T05:41:29;17.58;;;2.05;;
77948;SDS011;67146;51.236;-0.336;2023-04-25T05:43:55;18.17;;;2.03;;
77948;SDS011;67146;51.236;-0.336;2023-04-25T05:46:20;17.23;;;2.05;;
77948;SDS011;67146;51.236;-0.336;2023-04-25T05:48:45;13.38;;;1.83;;
77948;SDS011;67146;51.236;-0.336;2023-04-25T05:51:11;13.63;;;2.27;;
77948;SDS011;67146;51.236;-0.336;2023-04-25T05:53:36;9.70;;;2.10;;
77948;SDS011;67146;51.236;-0.336;2023-04-25T05:56:01;15.17;;;2.47;;
77948;SDS011;67146;51.236;-0.336;2023-04-25T05:58:27;9.80;;;1.75;;
77948;SDS011;67146;51.236;-0.336;2023-04-25T06:00:53;9.20;;;1.90;;
77948;SDS011;67146;51.236;-0.336;2023-04-25T06:03:19;12.40;;;1.98;;
77948;SDS011;67146;51.236;-0.336;2023-04-25T06:05:45;9.23;;;1.92;;
77948;SDS011;67146;51.236;-0.336;2023-04-25T06:08:10;13.70;;;1.57;;
77948;SDS011;67146;51.236;-0.336;2023-04-25T06:10:36;10.35;;;2.05;;
77948;SDS011;67146;51.236;-0.336;2023-04-25T06:13:02;7.90;;;1.65;;
77948;SDS011;67146;51.236;-0.336;2023-04-25T06:15:27;10.65;;;2.08;;
77948;SDS011;67146;51.236;-0.336;2023-04-25T06:17:53;11.75;;;2.08;;
77948;SDS011;67146;51.236;-0.336;2023-04-25T06:20:19;8.73;;;2.23;;
77948;SDS011;67146;51.236;-0.336;2023-04-25T06:22:48;9.00;;;2.10;;
77948;SDS011;67146;51.236;-0.336;2023-04-25T06:25:14;9.07;;;1.60;;
77948;SDS011;67146;51.236;-0.336;2023-04-25T06:27:40;8.07;;;1.65;;
77948;SDS011;67146;51.236;-0.336;2023-04-25T06:30:05;10.52;;;1.90;;
77948;SDS011;67146;51.236;-0.336;2023-04-25T06:32:34;8.38;;;2.10;;
77948;SDS011;67146;51.236;-0.336;2023-04-25T06:35:00;10.30;;;1.98;;
77948;SDS011;67146;51.236;-0.336;2023-04-25T06:37:25;7.93;;;1.48;;
77948;SDS011;67146;51.236;-0.336;2023-04-25T06:39:51;9.05;;;2.28;;
77948;SDS011;67146;51.236;-0.336;2023-04-25T06:42:16;9.30;;;1.15;;
77948;SDS011;67146;51.236;-0.336;2023-04-25T06:47:10;8.67;;;1.73;;
77948;SDS011;67146;51.236;-0.336;2023-04-25T06:49:35;9.50;;;1.27;;
77948;SDS011;67146;51.236;-0.336;2023-04-25T06:52:00;6.90;;;2.80;;
77948;SDS011;67146;51.236;-0.336;2023-04-25T06:54:26;8.03;;;1.50;;
77948;SDS011;67146;51.236;-0.336;2023-04-25T06:56:54;9.40;;;1.70;;
77948;SDS011;67146;51.236;-0.336;2023-04-25T06:59:21;8.25;;;1.70;;
77948;SDS011;67146;51.236;-0.336;2023-04-25T07:01:46;7.07;;;1.55;;
77948;SDS011;67146;51.236;-0.336;2023-04-25T07:04:11;12.15;;;2.50;;
77948;SDS011;67146;51.236;-0.336;2023-04-25T07:06:37;9.50;;;2.07;;
77948;SDS011;67146;51.236;-0.336;2023-04-25T07:09:07;9.20;;;2.22;;
77948;SDS011;67146;51.236;-0.336;2023-04-25T07:11:36;7.32;;;2.08;;
77948;SDS011;67146;51.236;-0.336;2023-04-25T07:14:02;8.77;;;1.67;;
77948;SDS011;67146;51.236;-0.336;2023-04-25T07:16:27;8.30;;;1.98;;
77948;SDS011;67146;51.236;-0.336;2023-04-25T07:18:52;9.15;;;2.65;;
77948;SDS011;67146;51.236;-0.336;2023-04-25T07:21:18;7.72;;;2.33;;
77948;SDS011;67146;51.236;-0.336;2023-04-25T07:23:43;6.80;;;1.77;;
77948;SDS011;67146;51.236;-0.336;2023-04-25T07:26:09;8.70;;;2.10;;
77948;SDS011;67146;51.236;-0.336;2023-04-25T07:28:34;8.00;;;2.50;;
77948;SDS011;67146;51.236;-0.336;2023-04-25T07:31:00;10.70;;;2.27;;
77948;SDS011;67146;51.236;-0.336;2023-04-25T07:33:25;9.10;;;2.50;;
77948;SDS011;67146;51.236;-0.336;2023-04-25T07:35:50;11.00;;;2.60;;
77948;SDS011;67146;51.236;-0.336;2023-04-25T07:38:16;10.43;;;2.58;;
77948;SDS011;67146;51.236;-0.336;2023-04-25T07:40:42;7.43;;;2.03;;
77948;SDS011;67146;51.236;-0.336;2023-04-25T07:43:07;8.35;;;2.63;;
77948;SDS011;67146;51.236;-0.336;2023-04-25T07:45:32;9.43;;;2.83;;
77948;SDS011;67146;51.236;-0.336;2023-04-25T07:48:01;8.68;;;2.67;;
77948;SDS011;67146;51.236;-0.336;2023-04-25T07:50:27;8.25;;;4.03;;
77948;SDS011;67146;51.236;-0.336;2023-04-25T07:52:53;10.80;;;2.13;;
77948;SDS011;67146;51.236;-0.336;2023-04-25T07:55:18;8.37;;;3.43;;
77948;SDS011;67146;51.236;-0.336;2023-04-25T07:57:44;10.57;;;2.28;;
77948;SDS011;67146;51.236;-0.336;2023-04-25T08:00:09;7.43;;;2.50;;
77948;SDS011;67146;51.236;-0.336;2023-04-25T08:02:36;8.68;;;1.90;;
77948;SDS011;67146;51.236;-0.336;2023-04-25T08:05:02;8.50;;;1.65;;
77948;SDS011;67146;51.236;-0.336;2023-04-25T08:07:28;8.38;;;2.22;;
77948;SDS011;67146;51.236;-0.336;2023-04-25T08:09:53;8.60;;;2.20;;
77948;SDS011;67146;51.236;-0.336;2023-04-25T08:12:19;8.93;;;2.08;;
77948;SDS011;67146;51.236;-0.336;2023-04-25T08:14:44;11.35;;;2.30;;
77948;SDS011;67146;51.236;-0.336;2023-04-25T08:17:10;10.02;;;2.10;;
77948;SDS011;67146;51.236;-0.336;2023-04-25T08:19:35;7.72;;;2.58;;
77948;SDS011;67146;51.236;-0.336;2023-04-25T08:22:01;7.40;;;1.67;;
77948;SDS011;67146;51.236;-0.336;2023-04-25T08:24:26;6.97;;;2.13;;
77948;SDS011;67146;51.236;-0.336;2023-04-25T08:26:51;9.03;;;2.00;;
77948;SDS011;67146;51.236;-0.336;2023-04-25T08:29:17;7.35;;;1.95;;
77948;SDS011;67146;51.236;-0.336;2023-04-25T08:31:42;14.55;;;2.22;;
77948;SDS011;67146;51.236;-0.336;2023-04-25T08:34:08;5.55;;;1.75;;
77948;SDS011;67146;51.236;-0.336;2023-04-25T08:36:34;7.38;;;2.05;;
77948;SDS011;67146;51.236;-0.336;2023-04-25T08:38:59;7.97;;;1.50;;
77948;SDS011;67146;51.236;-0.336;2023-04-25T08:41:25;9.27;;;2.00;;
77948;SDS011;67146;51.236;-0.336;2023-04-25T08:43:51;7.60;;;1.27;;
77948;SDS011;67146;51.236;-0.336;2023-04-25T08:46:18;7.55;;;1.10;;
77948;SDS011;67146;51.236;-0.336;2023-04-25T08:48:44;7.25;;;1.60;;
77948;SDS011;67146;51.236;-0.336;2023-04-25T08:51:10;6.75;;;1.65;;
77948;SDS011;67146;51.236;-0.336;2023-04-25T08:53:40;6.88;;;1.83;;
77948;SDS011;67146;51.236;-0.336;2023-04-25T08:56:07;6.63;;;1.15;;
77948;SDS011;67146;51.236;-0.336;2023-04-25T08:58:34;6.10;;;1.38;;
77948;SDS011;67146;51.236;-0.336;2023-04-25T09:01:01;7.72;;;1.75;;
77948;SDS011;67146;51.236;-0.336;2023-04-25T09:03:27;10.02;;;1.50;;
77948;SDS011;67146;51.236;-0.336;2023-04-25T09:05:52;8.05;;;1.75;;
77948;SDS011;67146;51.236;-0.336;2023-04-25T09:08:21;5.80;;;1.48;;
77948;SDS011;67146;51.236;-0.336;2023-04-25T09:10:46;5.57;;;1.00;;
77948;SDS011;67146;51.236;-0.336;2023-04-25T09:13:12;6.97;;;1.50;;
77948;SDS011;67146;51.236;-0.336;2023-04-25T09:15:49;7.28;;;1.30;;
77948;SDS011;67146;51.236;-0.336;2023-04-25T09:18:26;7.28;;;1.20;;
77948;SDS011;67146;51.236;-0.336;2023-04-25T09:20:55;5.47;;;1.08;;
77948;SDS011;67146;51.236;-0.336;2023-04-25T09:23:22;4.75;;;1.25;;
77948;SDS011;67146;51.236;-0.336;2023-04-25T09:25:48;8.13;;;1.42;;
77948;SDS011;67146;51.236;-0.336;2023-04-25T09:28:15;7.85;;;1.33;;
77948;SDS011;67146;51.236;-0.336;2023-04-25T09:30:41;5.93;;;1.00;;
77948;SDS011;67146;51.236;-0.336;2023-04-25T09:33:07;7.47;;;1.67;;
77948;SDS011;67146;51.236;-0.336;2023-04-25T09:35:40;5.80;;;1.27;;
77948;SDS011;67146;51.236;-0.336;2023-04-25T09:38:08;8.52;;;1.42;;
77948;SDS011;67146;51.236;-0.336;2023-04-25T09:40:44;6.95;;;1.35;;
77948;SDS011;67146;51.236;-0.336;2023-04-25T09:43:21;5.43;;;0.85;;
77948;SDS011;67146;51.236;-0.336;2023-04-25T09:45:47;6.97;;;1.05;;
77948;SDS011;67146;51.236;-0.336;2023-04-25T09:48:16;6.38;;;1.25;;
77948;SDS011;67146;51.236;-0.336;2023-04-25T09:51:07;6.30;;;1.25;;
77948;SDS011;67146;51.236;-0.336;2023-04-25T09:55:58;6.00;;;0.95;;
77948;SDS011;67146;51.236;-0.336;2023-04-25T09:58:24;6.20;;;1.05;;
77948;SDS011;67146;51.236;-0.336;2023-04-25T10:00:51;4.72;;;0.47;;
77948;SDS011;67146;51.236;-0.336;2023-04-25T10:03:19;7.25;;;1.48;;
77948;SDS011;67146;51.236;-0.336;2023-04-25T10:05:45;6.30;;;1.95;;
77948;SDS011;67146;51.236;-0.336;2023-04-25T10:08:12;4.97;;;0.60;;
77948;SDS011;67146;51.236;-0.336;2023-04-25T10:10:37;6.15;;;0.52;;
77948;SDS011;67146;51.236;-0.336;2023-04-25T10:13:05;5.78;;;0.93;;
77948;SDS011;67146;51.236;-0.336;2023-04-25T10:15:32;4.85;;;0.80;;
77948;SDS011;67146;51.236;-0.336;2023-04-25T10:18:00;4.38;;;1.10;;
77948;SDS011;67146;51.236;-0.336;2023-04-25T10:20:25;5.15;;;0.80;;
77948;SDS011;67146;51.236;-0.336;2023-04-25T10:22:51;4.32;;;0.80;;
77948;SDS011;67146;51.236;-0.336;2023-04-25T10:25:21;4.55;;;1.10;;
77948;SDS011;67146;51.236;-0.336;2023-04-25T10:27:49;5.68;;;0.70;;
77948;SDS011;67146;51.236;-0.336;2023-04-25T10:30:16;5.03;;;0.77;;
77948;SDS011;67146;51.236;-0.336;2023-04-25T10:32:42;4.13;;;0.67;;
77948;SDS011;67146;51.236;-0.336;2023-04-25T10:35:18;7.18;;;0.73;;
77948;SDS011;67146;51.236;-0.336;2023-04-25T10:38:09;5.38;;;0.60;;
77948;SDS011;67146;51.236;-0.336;2023-04-25T10:40:37;5.25;;;0.57;;
77948;SDS011;67146;51.236;-0.336;2023-04-25T10:45:56;5.65;;;0.45;;
77948;SDS011;67146;51.236;-0.336;2023-04-25T10:48:28;5.60;;;0.75;;
77948;SDS011;67146;51.236;-0.336;2023-04-25T10:51:07;5.43;;;0.43;;
77948;SDS011;67146;51.236;-0.336;2023-04-25T10:53:33;5.75;;;0.80;;
77948;SDS011;67146;51.236;-0.336;2023-04-25T10:55:59;5.88;;;0.63;;
77948;SDS011;67146;51.236;-0.336;2023-04-25T10:58:24;5.13;;;0.43;;
77948;SDS011;67146;51.236;-0.336;2023-04-25T11:00:51;7.03;;;0.98;;
77948;SDS011;67146;51.236;-0.336;2023-04-25T11:03:16;5.93;;;1.25;;
77948;SDS011;67146;51.236;-0.336;2023-04-25T11:05:42;5.83;;;0.60;;
77948;SDS011;67146;51.236;-0.336;2023-04-25T11:08:13;2.80;;;0.60;;
77948;SDS011;67146;51.236;-0.336;2023-04-25T11:10:39;5.18;;;0.65;;
77948;SDS011;67146;51.236;-0.336;2023-04-25T11:13:05;3.42;;;0.43;;
77948;SDS011;67146;51.236;-0.336;2023-04-25T11:15:30;4.03;;;0.60;;
77948;SDS011;67146;51.236;-0.336;2023-04-25T11:17:56;3.75;;;0.75;;
77948;SDS011;67146;51.236;-0.336;2023-04-25T11:20:21;7.13;;;1.40;;
77948;SDS011;67146;51.236;-0.336;2023-04-25T11:22:47;5.88;;;0.75;;
77948;SDS011;67146;51.236;-0.336;2023-04-25T11:25:14;7.00;;;0.85;;
77948;SDS011;67146;51.236;-0.336;2023-04-25T11:30:19;6.15;;;0.93;;
77948;SDS011;67146;51.236;-0.336;2023-04-25T11:32:45;6.28;;;0.90;;
77948;SDS011;67146;51.236;-0.336;2023-04-25T11:35:11;4.15;;;0.73;;
77948;SDS011;67146;51.236;-0.336;2023-04-25T11:37:40;4.68;;;0.75;;
77948;SDS011;67146;51.236;-0.336;2023-04-25T11:40:06;4.45;;;0.52;;
77948;SDS011;67146;51.236;-0.336;2023-04-25T11:42:33;4.15;;;0.52;;
77948;SDS011;67146;51.236;-0.336;2023-04-25T11:44:59;4.90;;;0.52;;
77948;SDS011;67146;51.236;-0.336;2023-04-25T11:47:31;4.97;;;0.52;;
77948;SDS011;67146;51.236;-0.336;2023-04-25T11:50:02;4.60;;;0.57;;
77948;SDS011;67146;51.236;-0.336;2023-04-25T11:52:41;6.57;;;0.70;;
77948;SDS011;67146;51.236;-0.336;2023-04-25T11:55:08;5.45;;;0.60;;
77948;SDS011;67146;51.236;-0.336;2023-04-25T11:57:34;5.32;;;0.55;;
77948;SDS011;67146;51.236;-0.336;2023-04-25T12:00:10;5.80;;;0.80;;
77948;SDS011;67146;51.236;-0.336;2023-04-25T12:02:45;4.90;;;0.50;;
77948;SDS011;67146;51.236;-0.336;2023-04-25T12:05:12;3.95;;;0.50;;
77948;SDS011;67146;51.236;-0.336;2023-04-25T12:07:38;9.23;;;0.80;;
77948;SDS011;67146;51.236;-0.336;2023-04-25T12:10:07;5.13;;;0.70;;
77948;SDS011;67146;51.236;-0.336;2023-04-25T12:12:34;4.00;;;0.52;;
77948;SDS011;67146;51.236;-0.336;2023-04-25T12:15:22;6.35;;;0.55;;
77948;SDS011;67146;51.236;-0.336;2023-04-25T12:17:52;3.92;;;0.40;;
77948;SDS011;67146;51.236;-0.336;2023-04-25T12:20:19;4.85;;;0.73;;
77948;SDS011;67146;51.236;-0.336;2023-04-25T12:22:46;5.60;;;0.73;;
77948;SDS011;67146;51.236;-0.336;2023-04-25T12:25:17;3.97;;;0.40;;
77948;SDS011;67146;51.236;-0.336;2023-04-25T12:28:36;6.38;;;0.57;;
77948;SDS011;67146;51.236;-0.336;2023-04-25T12:31:00;5.45;;;1.02;;
77948;SDS011;67146;51.236;-0.336;2023-04-25T12:33:30;4.10;;;0.40;;
77948;SDS011;67146;51.236;-0.336;2023-04-25T12:35:57;6.50;;;0.60;;
77948;SDS011;67146;51.236;-0.336;2023-04-25T12:38:27;3.40;;;0.65;;
77948;SDS011;67146;51.236;-0.336;2023-04-25T12:40:55;4.50;;;0.30;;
77948;SDS011;67146;51.236;-0.336;2023-04-25T12:43:20;4.60;;;0.60;;
77948;SDS011;67146;51.236;-0.336;2023-04-25T12:45:50;5.13;;;0.52;;
77948;SDS011;67146;51.236;-0.336;2023-04-25T12:48:19;4.65;;;0.55;;
77948;SDS011;67146;51.236;-0.336;2023-04-25T12:50:45;6.32;;;0.80;;
77948;SDS011;67146;51.236;-0.336;2023-04-25T12:53:13;4.97;;;0.73;;
77948;SDS011;67146;51.236;-0.336;2023-04-25T12:55:39;5.82;;;0.70;;
77948;SDS011;67146;51.236;-0.336;2023-04-25T12:58:05;6.80;;;0.77;;
77948;SDS011;67146;51.236;-0.336;2023-04-25T13:00:30;4.53;;;0.80;;
77948;SDS011;67146;51.236;-0.336;2023-04-25T13:02:56;6.43;;;0.65;;
77948;SDS011;67146;51.236;-0.336;2023-04-25T13:05:22;4.70;;;0.60;;
77948;SDS011;67146;51.236;-0.336;2023-04-25T13:07:47;4.35;;;0.70;;
77948;SDS011;67146;51.236;-0.336;2023-04-25T13:10:16;4.85;;;0.70;;
77948;SDS011;67146;51.236;-0.336;2023-04-25T13:12:43;7.50;;;1.08;;
77948;SDS011;67146;51.236;-0.336;2023-04-25T13:15:09;5.45;;;1.00;;
77948;SDS011;67146;51.236;-0.336;2023-04-25T13:17:36;3.78;;;0.45;;
77948;SDS011;67146;51.236;-0.336;2023-04-25T13:20:03;5.35;;;0.70;;
77948;SDS011;67146;51.236;-0.336;2023-04-25T13:22:31;5.80;;;1.02;;
77948;SDS011;67146;51.236;-0.336;2023-04-25T13:24:56;4.63;;;0.68;;
77948;SDS011;67146;51.236;-0.336;2023-04-25T13:27:21;6.83;;;0.80;;
77948;SDS011;67146;51.236;-0.336;2023-04-25T13:29:47;6.30;;;0.90;;
77948;SDS011;67146;51.236;-0.336;2023-04-25T13:32:12;5.30;;;0.63;;
77948;SDS011;67146;51.236;-0.336;2023-04-25T13:34:37;4.80;;;1.00;;
77948;SDS011;67146;51.236;-0.336;2023-04-25T13:37:03;5.47;;;0.93;;
77948;SDS011;67146;51.236;-0.336;2023-04-25T13:39:28;5.40;;;1.00;;
77948;SDS011;67146;51.236;-0.336;2023-04-25T13:41:53;6.50;;;1.23;;
77948;SDS011;67146;51.236;-0.336;2023-04-25T13:44:19;5.50;;;0.90;;
77948;SDS011;67146;51.236;-0.336;2023-04-25T13:46:44;5.57;;;1.10;;
77948;SDS011;67146;51.236;-0.336;2023-04-25T13:49:11;4.97;;;1.70;;
77948;SDS011;67146;51.236;-0.336;2023-04-25T13:51:36;6.03;;;0.98;;
77948;SDS011;67146;51.236;-0.336;2023-04-25T13:54:02;5.70;;;0.70;;
77948;SDS011;67146;51.236;-0.336;2023-04-25T13:56:27;4.53;;;0.95;;
77948;SDS011;67146;51.236;-0.336;2023-04-25T13:58:53;5.07;;;1.10;;
77948;SDS011;67146;51.236;-0.336;2023-04-25T14:01:18;5.88;;;0.93;;
77948;SDS011;67146;51.236;-0.336;2023-04-25T14:03:44;8.85;;;1.20;;
77948;SDS011;67146;51.236;-0.336;2023-04-25T14:06:10;5.93;;;1.08;;
77948;SDS011;67146;51.236;-0.336;2023-04-25T14:08:40;7.45;;;1.52;;
77948;SDS011;67146;51.236;-0.336;2023-04-25T14:11:05;5.90;;;0.90;;
77948;SDS011;67146;51.236;-0.336;2023-04-25T14:13:31;5.37;;;1.27;;
77948;SDS011;67146;51.236;-0.336;2023-04-25T14:15:56;5.10;;;1.17;;
77948;SDS011;67146;51.236;-0.336;2023-04-25T14:18:22;6.38;;;1.45;;
77948;SDS011;67146;51.236;-0.336;2023-04-25T14:20:47;5.70;;;0.90;;
77948;SDS011;67146;51.236;-0.336;2023-04-25T14:23:12;5.10;;;1.20;;
77948;SDS011;67146;51.236;-0.336;2023-04-25T14:25:38;5.85;;;1.45;;
77948;SDS011;67146;51.236;-0.336;2023-04-25T14:28:04;5.63;;;1.17;;
77948;SDS011;67146;51.236;-0.336;2023-04-25T14:30:30;4.53;;;0.90;;
77948;SDS011;67146;51.236;-0.336;2023-04-25T14:32:55;4.60;;;1.00;;
77948;SDS011;67146;51.236;-0.336;2023-04-25T14:35:20;5.47;;;1.13;;